Time;durP1;ratioP1;P1;durP2;ratioP2;P2;SDS_P1;SDS_P2;PMS_P1;PMS_P2;Temp;Humidity;BMP_temperature;BMP_pressure;BME280_temperature;BME280_humidity;BME280_pressure;Samples;Min_cycle;Max_cycle;Signal;HPM_P1;HPM_P2
2023/04/23 00:00:06;;;;;;;8.57;6.27;;;;;;;12.30;100.00;99770.50;4988650;28;20232;-73
2023/04/23 00:02:33;;;;;;;8.10;5.63;;;;;;;12.32;100.00;99773.13;4984062;28;20213;-74
2023/04/23 00:05:05;;;;;;;11.57;6.37;;;;;;;12.31;100.00;99771.38;4966630;28;20213;-73
2023/04/23 00:07:33;;;;;;;7.80;6.03;;;;;;;12.27;100.00;99773.16;4982004;28;20201;-73
2023/04/23 00:10:02;;;;;;;10.17;6.47;;;;;;;12.29;100.00;99768.72;4985612;28;20196;-74
2023/04/23 00:12:29;;;;;;;8.43;6.03;;;;;;;12.26;100.00;99762.53;4979809;28;20198;-73
2023/04/23 00:14:55;;;;;;;8.73;6.57;;;;;;;12.20;100.00;99760.78;4968016;28;20193;-72
2023/04/23 00:17:22;;;;;;;7.87;6.10;;;;;;;12.24;100.00;99766.09;4965635;28;20212;-71
2023/04/23 00:19:48;;;;;;;8.77;6.87;;;;;;;12.26;100.00;99770.50;4966464;28;20225;-73
2023/04/23 00:22:15;;;;;;;8.47;6.50;;;;;;;12.28;100.00;99774.91;4984618;28;20232;-73
2023/04/23 00:24:42;;;;;;;8.13;6.47;;;;;;;12.32;100.00;99778.44;4966695;28;20222;-73
2023/04/23 00:27:08;;;;;;;8.60;6.37;;;;;;;12.27;100.00;99767.84;4988838;28;20238;-74
2023/04/23 00:29:35;;;;;;;11.83;7.30;;;;;;;12.24;100.00;99768.75;4978260;28;20260;-73
2023/04/23 00:32:02;;;;;;;9.40;6.67;;;;;;;12.30;100.00;99772.25;4985448;28;20888;-70
2023/04/23 00:34:28;;;;;;;9.93;6.77;;;;;;;12.19;100.00;99772.31;4987205;28;20193;-71
2023/04/23 00:36:55;;;;;;;10.90;6.73;;;;;;;12.16;100.00;99769.66;4989419;28;20501;-72
2023/04/23 00:39:21;;;;;;;10.00;7.20;;;;;;;12.12;100.00;99779.41;4987670;28;20204;-74
2023/04/23 00:41:48;;;;;;;8.80;6.60;;;;;;;12.12;100.00;99781.19;4964360;28;20227;-72
2023/04/23 00:44:14;;;;;;;9.90;6.53;;;;;;;12.06;100.00;99776.78;4983106;28;20217;-73
2023/04/23 00:46:41;;;;;;;9.87;7.03;;;;;;;12.04;100.00;99773.25;4982683;28;20242;-73
2023/04/23 00:49:07;;;;;;;9.10;6.57;;;;;;;12.01;100.00;99775.91;4980493;28;20235;-73
2023/04/23 00:51:34;;;;;;;9.70;6.63;;;;;;;12.01;100.00;99778.56;4967033;28;20265;-73
2023/04/23 00:54:00;;;;;;;9.07;6.93;;;;;;;12.01;100.00;99769.69;4990005;28;20236;-71
2023/04/23 00:56:27;;;;;;;12.87;7.43;;;;;;;11.98;100.00;99769.69;4987320;28;20201;-72
2023/04/23 00:58:53;;;;;;;9.30;7.10;;;;;;;11.97;100.00;99773.22;4983889;28;20255;-72
2023/04/23 01:01:22;;;;;;;10.53;8.20;;;;;;;11.97;100.00;99775.88;4966308;28;20264;-74
2023/04/23 01:03:51;;;;;;;10.20;7.30;;;;;;;11.93;100.00;99775.00;4978633;28;20772;-73
2023/04/23 01:06:18;;;;;;;14.93;7.83;;;;;;;11.93;100.00;99773.25;4962471;28;20213;-73
2023/04/23 01:08:46;;;;;;;11.23;7.90;;;;;;;11.95;100.00;99775.88;4983064;28;20290;-72
2023/04/23 01:11:13;;;;;;;11.60;7.87;;;;;;;11.93;100.00;99772.34;4982460;28;20296;-72
2023/04/23 01:13:41;;;;;;;9.00;7.23;;;;;;;11.91;100.00;99782.09;4986806;28;20239;-71
2023/04/23 01:16:08;;;;;;;10.27;7.40;;;;;;;11.88;100.00;99775.03;4984332;28;20221;-72
2023/04/23 01:18:34;;;;;;;10.80;7.70;;;;;;;11.81;100.00;99773.28;4963597;28;20255;-73
2023/04/23 01:21:02;;;;;;;13.33;8.30;;;;;;;11.79;100.00;99772.41;4988857;28;20256;-71
2023/04/23 01:23:29;;;;;;;12.73;8.20;;;;;;;11.82;100.00;99776.81;4983211;28;20228;-73
2023/04/23 01:25:57;;;;;;;10.23;7.73;;;;;;;11.81;100.00;99772.38;4984761;28;20320;-73
2023/04/23 01:28:23;;;;;;;11.80;8.13;;;;;;;11.79;100.00;99780.34;4979717;28;20224;-72
2023/04/23 01:30:50;;;;;;;10.63;7.17;;;;;;;11.77;100.00;99776.78;4984570;28;20220;-73
2023/04/23 01:33:18;;;;;;;8.80;7.17;;;;;;;11.74;100.00;99781.22;4981954;28;20688;-74
2023/04/23 01:35:46;;;;;;;11.07;8.53;;;;;;;11.74;100.00;99774.13;4984605;28;20208;-73
2023/04/23 01:38:13;;;;;;;10.77;8.03;;;;;;;11.72;100.00;99781.22;4979194;28;20684;-74
2023/04/23 01:40:39;;;;;;;12.23;8.50;;;;;;;11.69;100.00;99781.22;4983881;28;20232;-72
2023/04/23 01:43:06;;;;;;;10.80;8.13;;;;;;;11.67;100.00;99790.94;4984983;28;20238;-75
2023/04/23 01:45:33;;;;;;;9.87;7.50;;;;;;;11.67;100.00;99795.38;4965306;28;20685;-74
2023/04/23 01:47:59;;;;;;;12.30;8.83;;;;;;;11.63;100.00;99807.75;4967181;28;20206;-72
2023/04/23 01:50:27;;;;;;;12.13;8.57;;;;;;;11.64;100.00;99809.53;4970018;28;20598;-74
2023/04/23 01:52:54;;;;;;;10.60;8.23;;;;;;;11.66;100.00;99814.81;4980845;28;20224;-73
2023/04/23 01:55:22;;;;;;;12.47;8.30;;;;;;;11.65;100.00;99805.97;4986058;28;20254;-73
2023/04/23 01:57:49;;;;;;;12.50;8.37;;;;;;;11.63;100.00;99805.09;4986042;28;20199;-73
2023/04/23 02:00:16;;;;;;;10.97;8.33;;;;;;;11.62;100.00;99803.34;4986937;28;20268;-72
2023/04/23 02:02:44;;;;;;;11.33;8.80;;;;;;;11.60;100.00;99797.13;4984190;28;20654;-73
2023/04/23 02:05:17;;;;;;;13.00;8.80;;;;;;;11.61;100.00;99809.53;4981476;28;20221;-71
2023/04/23 02:07:46;;;;;;;10.93;8.00;;;;;;;11.56;100.00;99793.59;4988264;28;20197;-72
2023/04/23 02:10:13;;;;;;;11.30;8.93;;;;;;;11.60;100.00;99803.31;4984928;28;20682;-72
2023/04/23 02:12:39;;;;;;;13.63;9.43;;;;;;;11.67;100.00;99798.91;4985040;28;20223;-73
2023/04/23 02:15:07;;;;;;;13.77;9.17;;;;;;;11.70;100.00;99798.03;4969158;28;20228;-72
2023/04/23 02:17:34;;;;;;;13.40;9.40;;;;;;;11.68;100.00;99805.97;4968852;28;20229;-73
2023/04/23 02:20:01;;;;;;;15.07;10.47;;;;;;;11.75;100.00;99797.13;4985666;28;20227;-73
2023/04/23 02:22:27;;;;;;;14.30;9.13;;;;;;;11.70;100.00;99808.63;4966578;28;20204;-73
2023/04/23 02:24:54;;;;;;;12.07;8.87;;;;;;;11.62;100.00;99800.69;4983194;28;20598;-74
2023/04/23 02:27:21;;;;;;;12.90;9.00;;;;;;;11.57;100.00;99799.78;4979865;28;20262;-72
2023/04/23 02:29:48;;;;;;;13.73;9.43;;;;;;;11.52;100.00;99799.78;4981482;28;20611;-73
2023/04/23 02:32:14;;;;;;;12.00;9.13;;;;;;;11.52;100.00;99806.84;4982621;28;20258;-74
2023/04/23 02:34:41;;;;;;;14.03;10.53;;;;;;;11.53;100.00;99805.97;4969441;28;20206;-72
2023/04/23 02:37:08;;;;;;;15.80;10.03;;;;;;;11.49;100.00;99812.16;4964752;28;20206;-72
2023/04/23 02:39:34;;;;;;;12.83;9.50;;;;;;;11.46;100.00;99810.38;4984100;28;20219;-73
2023/04/23 02:42:00;;;;;;;15.00;9.87;;;;;;;11.46;100.00;99815.69;4989515;28;20271;-72
2023/04/23 02:44:27;;;;;;;14.43;10.20;;;;;;;11.43;100.00;99820.09;4966362;28;20622;-73
2023/04/23 02:46:53;;;;;;;13.50;10.50;;;;;;;11.42;100.00;99821.00;4983971;28;20598;-73
2023/04/23 02:49:19;;;;;;;15.53;10.60;;;;;;;11.35;100.00;99817.47;4980165;28;20210;-73
2023/04/23 02:51:46;;;;;;;14.27;10.30;;;;;;;11.34;100.00;99818.34;4984057;28;20595;-73
2023/04/23 02:54:12;;;;;;;13.00;9.43;;;;;;;11.27;100.00;99813.91;4985118;28;20210;-74
2023/04/23 02:56:39;;;;;;;12.70;9.50;;;;;;;11.25;100.00;99819.22;4979473;28;20208;-73
2023/04/23 02:59:07;;;;;;;14.33;10.07;;;;;;;11.23;100.00;99822.75;4980537;28;20227;-73
2023/04/23 03:01:33;;;;;;;12.60;9.50;;;;;;;11.16;100.00;99819.19;4977135;28;20235;-73
2023/04/23 03:04:00;;;;;;;15.87;9.90;;;;;;;11.17;100.00;99822.72;4985847;28;20207;-73
2023/04/23 03:06:27;;;;;;;16.77;10.73;;;;;;;11.15;100.00;99813.88;4968874;28;20219;-75
2023/04/23 03:08:53;;;;;;;12.57;9.17;;;;;;;11.16;100.00;99820.94;4987211;28;20273;-76
2023/04/23 03:11:20;;;;;;;12.87;9.70;;;;;;;11.14;100.00;99813.00;4984405;28;20530;-77
2023/04/23 03:13:46;;;;;;;16.20;10.43;;;;;;;11.13;100.00;99819.19;4984091;28;20568;-77
2023/04/23 03:16:12;;;;;;;14.70;10.07;;;;;;;11.15;100.00;99822.72;4985813;28;20212;-78
2023/04/23 03:18:39;;;;;;;14.37;10.43;;;;;;;11.11;100.00;99818.28;4985345;28;20207;-79
2023/04/23 03:21:05;;;;;;;13.17;9.40;;;;;;;11.13;100.00;99826.25;4968397;28;20793;-78
2023/04/23 03:23:32;;;;;;;11.60;9.20;;;;;;;11.11;100.00;99818.28;4981631;28;20672;-81
2023/04/23 03:25:58;;;;;;;15.13;10.53;;;;;;;11.19;100.00;99821.84;4980680;28;20844;-79
2023/04/23 03:28:24;;;;;;;13.67;9.97;;;;;;;11.16;100.00;99813.00;4965853;28;20292;-76
2023/04/23 03:30:51;;;;;;;13.37;9.63;;;;;;;11.14;100.00;99820.94;4979650;28;20245;-77
2023/04/23 03:33:17;;;;;;;13.53;9.53;;;;;;;11.17;100.00;99818.28;4978340;28;20667;-76
2023/04/23 03:35:44;;;;;;;13.07;9.80;;;;;;;11.22;100.00;99813.91;4985380;28;20576;-76
2023/04/23 03:38:10;;;;;;;11.90;9.30;;;;;;;11.26;100.00;99814.81;4978131;28;20202;-77
2023/04/23 03:40:36;;;;;;;12.27;9.27;;;;;;;11.23;100.00;99813.03;4967514;28;20227;-79
2023/04/23 03:43:03;;;;;;;12.33;9.30;;;;;;;11.16;100.00;99805.94;4981634;28;20203;-79
2023/04/23 03:45:30;;;;;;;12.43;9.03;;;;;;;11.15;100.00;99809.47;4981035;28;20795;-79
2023/04/23 03:47:56;;;;;;;11.30;8.67;;;;;;;11.15;100.00;99805.94;4961836;28;20219;-80
2023/04/23 03:50:23;;;;;;;11.73;8.57;;;;;;;11.09;100.00;99803.28;4981694;28;20313;-82
2023/04/23 03:52:51;;;;;;;10.43;7.70;;;;;;;11.11;100.00;99814.75;4984778;28;21020;-73
2023/04/23 03:55:19;;;;;;;13.07;9.03;;;;;;;11.12;100.00;99809.47;4984119;28;20199;-75
2023/04/23 03:57:45;;;;;;;15.73;9.20;;;;;;;11.14;100.00;99814.75;4982462;28;20575;-72
2023/04/23 04:00:12;;;;;;;11.47;8.63;;;;;;;11.11;100.00;99810.34;4964595;28;20197;-77
2023/04/23 04:02:39;;;;;;;12.90;8.73;;;;;;;11.11;100.00;99820.94;4983274;28;20303;-75
2023/04/23 04:05:12;;;;;;;12.77;9.23;;;;;;;11.07;100.00;99816.53;4979954;28;20304;-73
2023/04/23 04:07:40;;;;;;;12.73;9.67;;;;;;;11.08;100.00;99813.00;4967365;28;20213;-73
2023/04/23 04:10:06;;;;;;;12.87;8.63;;;;;;;11.07;100.00;99820.94;4983743;28;20215;-75
2023/04/23 04:12:33;;;;;;;12.93;8.90;;;;;;;11.03;100.00;99813.88;4978175;28;20204;-76
2023/04/23 04:15:01;;;;;;;13.43;9.13;;;;;;;11.06;100.00;99819.16;4986560;28;20200;-77
2023/04/23 04:17:28;;;;;;;13.80;8.90;;;;;;;11.06;100.00;99822.69;4981415;28;20268;-73
2023/04/23 04:19:54;;;;;;;13.50;9.23;;;;;;;11.04;100.00;99821.81;4984653;28;20203;-73
2023/04/23 04:22:20;;;;;;;12.30;9.50;;;;;;;11.09;100.00;99833.31;4999801;22;20222;-79
2023/04/23 04:24:47;;;;;;;13.03;9.17;;;;;;;11.08;100.00;99826.22;4989887;28;20232;-76
2023/04/23 04:27:13;;;;;;;15.57;9.73;;;;;;;11.12;100.00;99828.00;4994742;28;20595;-77
2023/04/23 04:29:40;;;;;;;13.10;9.80;;;;;;;11.11;100.00;99828.00;4989121;28;20615;-82
2023/04/23 04:32:08;;;;;;;13.63;9.23;;;;;;;11.09;100.00;99827.13;4993484;28;20228;-78
2023/04/23 04:34:37;;;;;;;13.27;9.10;;;;;;;11.05;100.00;99825.34;5001106;28;20630;-78
2023/04/23 04:37:03;;;;;;;11.30;8.53;;;;;;;11.06;100.00;99829.75;4999282;28;20226;-84
2023/04/23 04:39:30;;;;;;;11.87;8.37;;;;;;;11.02;100.00;99820.94;4991516;28;20247;-82
2023/04/23 04:41:56;;;;;;;12.57;8.40;;;;;;;11.08;100.00;99831.53;4987512;28;20273;-76
2023/04/23 04:44:24;;;;;;;10.47;8.17;;;;;;;11.03;100.00;99835.06;4999206;28;20853;-74
2023/04/23 04:46:51;;;;;;;10.73;8.23;;;;;;;11.04;100.00;99832.41;4994205;28;20225;-75
2023/04/23 04:49:18;;;;;;;10.23;7.93;;;;;;;11.19;100.00;99836.84;4973663;28;20580;-74
2023/04/23 04:51:44;;;;;;;9.33;7.60;;;;;;;11.14;100.00;99831.53;4996646;28;20297;-74
2023/04/23 04:54:11;;;;;;;10.50;8.00;;;;;;;11.15;100.00;99830.66;4976110;28;20227;-74
2023/04/23 04:56:37;;;;;;;10.10;7.57;;;;;;;11.12;100.00;99835.06;4999928;28;20197;-74
2023/04/23 04:59:04;;;;;;;9.97;7.70;;;;;;;11.05;100.00;99841.25;4972795;28;20691;-74
2023/04/23 05:01:32;;;;;;;9.93;8.00;;;;;;;11.02;100.00;99841.25;4974853;28;20261;-74
2023/04/23 05:03:58;;;;;;;8.73;7.30;;;;;;;10.92;100.00;99833.28;4993934;28;20254;-79
2023/04/23 05:06:27;;;;;;;10.80;7.50;;;;;;;10.87;100.00;99829.72;4977480;28;20277;-76
2023/04/23 05:08:54;;;;;;;9.03;7.43;;;;;;;10.81;100.00;99824.41;4990628;28;20204;-74
2023/04/23 05:11:20;;;;;;;11.40;8.20;;;;;;;10.77;100.00;99832.31;4993493;28;20223;-75
2023/04/23 05:13:47;;;;;;;9.67;7.63;;;;;;;10.72;100.00;99834.94;4971035;28;20211;-78
2023/04/23 05:16:14;;;;;;;9.80;7.90;;;;;;;10.77;100.00;99830.56;4991236;28;20553;-75
2023/04/23 05:18:41;;;;;;;11.37;8.43;;;;;;;10.67;100.00;99828.75;4995970;28;20661;-80
2023/04/23 05:21:10;;;;;;;10.43;7.93;;;;;;;10.68;100.00;99836.72;4995687;28;20291;-76
2023/04/23 05:23:36;;;;;;;10.07;7.93;;;;;;;10.63;100.00;99832.28;4973930;28;20623;-74
2023/04/23 05:26:03;;;;;;;11.50;8.40;;;;;;;10.60;100.00;99832.25;4989061;28;20221;-74
2023/04/23 05:28:30;;;;;;;10.37;8.00;;;;;;;10.60;100.00;99835.78;4998466;28;20269;-74
2023/04/23 05:30:57;;;;;;;10.57;7.77;;;;;;;10.61;100.00;99834.91;4995185;28;20590;-74
2023/04/23 05:33:24;;;;;;;11.63;8.30;;;;;;;10.67;100.00;99829.63;4987218;28;20590;-74
2023/04/23 05:35:58;;;;;;;11.13;8.13;;;;;;;10.90;100.00;99842.09;4989065;28;20197;-75
2023/04/23 05:38:25;;;;;;;11.77;8.83;;;;;;;11.33;100.00;99831.59;4979881;28;20228;-75
2023/04/23 05:40:51;;;;;;;13.30;8.70;;;;;;;11.83;100.00;99840.47;4994431;28;20221;-74
2023/04/23 05:43:18;;;;;;;11.20;8.63;;;;;;;12.51;100.00;99841.25;4995283;28;20203;-74
2023/04/23 05:45:44;;;;;;;10.87;8.17;;;;;;;13.06;100.00;99838.34;4991256;28;20314;-77
2023/04/23 05:48:10;;;;;;;9.77;7.67;;;;;;;13.01;100.00;99843.69;4988606;28;20714;-76
2023/04/23 05:50:37;;;;;;;9.43;7.23;;;;;;;13.19;100.00;99842.72;4995243;28;20661;-80
2023/04/23 05:53:03;;;;;;;8.90;6.43;;;;;;;13.27;100.00;99853.34;4977532;28;20644;-77
2023/04/23 05:55:29;;;;;;;9.90;7.00;;;;;;;13.32;100.00;99848.84;4998737;28;20546;-77
2023/04/23 05:57:56;;;;;;;8.50;6.80;;;;;;;13.56;100.00;99858.44;4980147;28;20204;-75
2023/04/23 06:00:22;;;;;;;9.50;6.60;;;;;;;13.74;100.00;99856.53;4991848;28;20204;-75
2023/04/23 06:02:49;;;;;;;8.37;6.40;;;;;;;13.87;100.00;99854.63;4985855;28;20701;-81
2023/04/23 06:05:15;;;;;;;8.50;6.27;;;;;;;13.99;100.00;99851.84;4990927;28;20281;-82
2023/04/23 06:07:42;;;;;;;7.77;6.17;;;;;;;13.99;100.00;99850.97;4991484;28;20201;-80
2023/04/23 06:10:09;;;;;;;8.30;6.03;;;;;;;13.81;100.00;99846.72;4994001;28;20195;-82
2023/04/23 06:12:40;;;;;;;8.30;5.73;;;;;;;13.73;100.00;99852.09;4997592;28;20223;-83
2023/04/23 06:15:08;;;;;;;7.13;6.03;;;;;;;13.76;100.00;99846.75;4971608;28;20236;-78
2023/04/23 06:17:35;;;;;;;8.40;6.20;;;;;;;13.82;100.00;99852.91;4989089;28;20696;-81
2023/04/23 06:20:01;;;;;;;8.70;5.87;;;;;;;13.98;100.00;99860.75;4995109;28;20294;-83
2023/04/23 06:22:28;;;;;;;8.33;6.43;;;;;;;14.13;100.00;99857.09;4997140;28;20246;-84
2023/04/23 06:24:55;;;;;;;7.50;5.63;;;;;;;13.76;100.00;99868.03;4970587;28;20560;-83
2023/04/23 06:27:21;;;;;;;8.40;6.07;;;;;;;13.71;100.00;99861.88;4975099;28;20225;-84
2023/04/23 06:29:47;;;;;;;7.70;6.13;;;;;;;13.74;100.00;99867.19;4979241;28;20200;-81
2023/04/23 06:32:14;;;;;;;9.93;5.60;;;;;;;13.75;100.00;99868.06;4996624;28;20306;-83
2023/04/23 06:34:43;;;;;;;8.70;5.60;;;;;;;13.76;100.00;99859.19;4990353;28;20673;-85
2023/04/23 06:37:27;;;;;;;7.27;5.70;;;;;;;13.83;100.00;99860.88;4999036;28;20208;-82
2023/04/23 06:39:55;;;;;;;6.63;5.40;;;;;;;13.85;100.00;99856.44;4994428;28;20739;-84
2023/04/23 06:42:21;;;;;;;9.83;6.33;;;;;;;14.31;99.08;99854.22;4999750;28;20361;-82
2023/04/23 06:44:48;;;;;;;9.77;5.80;;;;;;;14.32;98.08;99855.97;4994940;28;20633;-79
2023/04/23 06:47:14;;;;;;;8.10;5.73;;;;;;;14.06;99.57;99847.38;4993743;28;20224;-80
2023/04/23 06:49:40;;;;;;;7.03;5.97;;;;;;;14.02;99.25;99846.53;5003338;28;20228;-84
2023/04/23 06:52:07;;;;;;;6.80;5.83;;;;;;;14.42;96.78;99832.81;4999078;28;20244;-79
2023/04/23 06:54:33;;;;;;;9.07;6.50;;;;;;;14.50;97.51;99832.75;4999672;28;20250;-80
2023/04/23 06:57:00;;;;;;;7.57;5.60;;;;;;;14.81;95.50;99835.91;4969034;28;20251;-79
2023/04/23 06:59:26;;;;;;;8.20;6.00;;;;;;;14.89;95.83;99839.38;5002511;28;20258;-80
2023/04/23 07:01:52;;;;;;;8.87;6.70;;;;;;;15.96;90.42;99831.53;4995029;28;20770;-79
2023/04/23 07:04:19;;;;;;;8.70;6.70;;;;;;;16.96;82.39;99819.81;4997512;28;20235;-76
2023/04/23 07:06:45;;;;;;;8.67;6.80;;;;;;;18.94;74.50;99809.38;5002320;28;20225;-77
2023/04/23 07:09:12;;;;;;;7.63;6.00;;;;;;;19.97;68.32;99807.88;4998828;28;20236;-76
2023/04/23 07:11:38;;;;;;;7.10;6.03;;;;;;;20.67;65.78;99799.13;4995643;28;20615;-75
2023/04/23 07:14:05;;;;;;;8.67;6.10;;;;;;;21.10;62.53;99802.88;5002858;28;20400;-76
2023/04/23 07:16:32;;;;;;;7.20;5.67;;;;;;;20.48;63.04;99809.72;4990975;28;20251;-74
2023/04/23 07:19:01;;;;;;;6.40;5.40;;;;;;;19.20;68.34;99819.31;5004793;28;20197;-75
2023/04/23 07:21:27;;;;;;;8.00;6.03;;;;;;;17.96;74.18;99827.28;4987598;28;20306;-76
2023/04/23 07:24:05;;;;;;;6.93;5.47;;;;;;;17.17;77.40;99822.00;4993480;28;20306;-76
2023/04/23 07:26:32;;;;;;;7.80;5.73;;;;;;;16.56;80.50;99809.03;4991108;28;20765;-75
2023/04/23 07:29:00;;;;;;;7.10;5.30;;;;;;;17.49;77.69;99813.22;4993322;28;20200;-75
2023/04/23 07:31:27;;;;;;;7.97;5.57;;;;;;;17.62;78.22;99808.47;4996298;28;20224;-76
2023/04/23 07:33:55;;;;;;;7.53;4.93;;;;;;;18.75;73.49;99810.84;4994301;28;20246;-75
2023/04/23 07:36:21;;;;;;;7.83;5.23;;;;;;;18.36;72.25;99808.34;4997133;28;20288;-75
2023/04/23 07:38:47;;;;;;;6.87;5.37;;;;;;;19.07;70.39;99805.41;4990703;28;20201;-74
2023/04/23 07:41:14;;;;;;;6.90;5.63;;;;;;;18.05;72.89;99815.47;4999569;28;20656;-75
2023/04/23 07:43:41;;;;;;;7.57;5.37;;;;;;;17.60;76.03;99818.31;4998629;28;20201;-74
2023/04/23 07:46:08;;;;;;;6.80;5.27;;;;;;;17.19;76.37;99816.63;4998773;28;20255;-72
2023/04/23 07:48:34;;;;;;;6.93;5.60;;;;;;;16.58;78.69;99813.44;4997271;28;20203;-75
2023/04/23 07:51:01;;;;;;;6.93;5.30;;;;;;;16.82;79.70;99814.78;4994671;28;20410;-75
2023/04/23 07:53:28;;;;;;;8.53;5.70;;;;;;;17.08;79.09;99807.97;4996305;28;20681;-75
2023/04/23 07:55:57;;;;;;;7.77;5.50;;;;;;;16.93;78.39;99809.19;4996535;28;20676;-75
2023/04/23 07:58:24;;;;;;;9.33;5.93;;;;;;;16.39;80.66;99805.81;4985939;28;20264;-76
2023/04/23 08:00:51;;;;;;;7.40;6.07;;;;;;;16.10;83.14;99809.94;4999052;28;20704;-75
2023/04/23 08:03:17;;;;;;;9.37;5.73;;;;;;;16.41;82.09;99802.22;4994272;28;20652;-75
2023/04/23 08:05:44;;;;;;;9.03;6.10;;;;;;;16.43;81.92;99805.75;4991577;28;20205;-75
2023/04/23 08:08:12;;;;;;;8.37;5.97;;;;;;;16.53;82.10;99799.28;5002721;28;20205;-74
2023/04/23 08:10:39;;;;;;;7.33;6.00;;;;;;;16.76;80.05;99803.31;4994568;28;20208;-75
2023/04/23 08:13:06;;;;;;;7.53;6.07;;;;;;;17.05;77.84;99802.69;4986257;28;20252;-74
2023/04/23 08:15:33;;;;;;;8.10;5.50;;;;;;;17.19;78.00;99797.88;4990127;28;20200;-75
2023/04/23 08:17:59;;;;;;;7.17;5.70;;;;;;;17.43;74.99;99802.69;4991187;28;20665;-73
2023/04/23 08:20:26;;;;;;;7.50;5.27;;;;;;;17.12;77.06;99797.16;4990637;28;20962;-73
2023/04/23 08:22:52;;;;;;;7.30;5.70;;;;;;;17.21;76.40;99791.63;4990058;28;20236;-72
2023/04/23 08:25:19;;;;;;;8.27;5.47;;;;;;;17.11;75.84;99791.84;4997249;28;20236;-75
2023/04/23 08:27:46;;;;;;;8.50;5.53;;;;;;;17.00;77.35;99786.75;4987285;28;20224;-72
2023/04/23 08:30:12;;;;;;;5.87;5.27;;;;;;;17.06;78.17;99794.63;4981809;28;20204;-72
2023/04/23 08:32:39;;;;;;;7.03;5.43;;;;;;;16.88;79.33;99798.59;4987640;28;20221;-71
2023/04/23 08:35:07;;;;;;;6.10;5.50;;;;;;;16.89;79.26;99789.66;4986820;28;20215;-70
2023/04/23 08:37:33;;;;;;;7.63;5.37;;;;;;;17.00;77.87;99788.53;4991739;28;20229;-72
2023/04/23 08:40:00;;;;;;;7.20;5.40;;;;;;;17.22;76.30;99787.13;4994524;28;20624;-71
2023/04/23 08:42:37;;;;;;;8.57;5.53;;;;;;;17.33;75.43;99773.50;4972990;28;20229;-72
2023/04/23 08:45:04;;;;;;;6.13;4.97;;;;;;;17.76;75.02;99782.25;4987311;28;20196;-73
2023/04/23 08:47:31;;;;;;;10.37;5.20;;;;;;;18.26;73.02;99777.34;4985891;28;20228;-73
2023/04/23 08:49:58;;;;;;;6.67;4.73;;;;;;;18.61;71.63;99781.72;4985209;28;20266;-73
2023/04/23 08:52:31;;;;;;;7.17;5.07;;;;;;;18.85;68.90;99782.84;4986349;28;20223;-73
2023/04/23 08:55:00;;;;;;;5.87;4.47;;;;;;;18.80;66.91;99784.75;4991771;28;20251;-73
2023/04/23 08:57:26;;;;;;;6.97;4.47;;;;;;;18.99;66.41;99782.41;4990528;28;21865;-73
2023/04/23 08:59:54;;;;;;;6.90;4.17;;;;;;;19.01;65.84;99784.13;4990093;28;20352;-70
2023/04/23 09:02:21;;;;;;;5.40;4.27;;;;;;;18.81;67.52;99774.91;4985848;28;20244;-73
2023/04/23 09:04:48;;;;;;;5.30;4.27;;;;;;;18.98;66.45;99780.66;4971787;28;20209;-73
2023/04/23 09:07:17;;;;;;;5.90;4.40;;;;;;;18.50;68.64;99773.09;4989118;28;20691;-73
2023/04/23 09:09:44;;;;;;;6.07;4.80;;;;;;;18.77;67.79;99776.78;4985380;28;20224;-72
2023/04/23 09:12:10;;;;;;;6.23;5.10;;;;;;;18.85;67.63;99765.88;4988141;28;20305;-73
2023/04/23 09:14:37;;;;;;;6.43;4.60;;;;;;;18.89;68.74;99765.72;4986079;28;20232;-73
2023/04/23 09:17:04;;;;;;;5.30;4.43;;;;;;;19.10;67.63;99777.59;4986846;28;20225;-73
2023/04/23 09:19:30;;;;;;;7.10;4.80;;;;;;;19.01;67.43;99770.69;4986665;28;20586;-71
2023/04/23 09:21:58;;;;;;;6.03;3.73;;;;;;;19.15;65.63;99764.88;4988983;28;20248;-72
2023/04/23 09:24:25;;;;;;;4.90;4.10;;;;;;;19.45;65.28;99760.34;4986752;28;20208;-73
2023/04/23 09:26:52;;;;;;;6.30;4.33;;;;;;;19.44;65.67;99760.41;4989098;28;20245;-73
2023/04/23 09:29:22;;;;;;;5.57;4.50;;;;;;;19.42;65.99;99755.09;4986622;28;20626;-71
2023/04/23 09:31:50;;;;;;;5.37;4.10;;;;;;;19.67;65.66;99750.69;4974498;28;20224;-73
2023/04/23 09:34:21;;;;;;;7.03;4.20;;;;;;;19.81;64.22;99750.22;4990521;28;20200;-72
2023/04/23 09:36:49;;;;;;;4.33;3.60;;;;;;;20.02;62.79;99736.03;4994209;28;20242;-73
2023/04/23 09:39:18;;;;;;;5.10;3.03;;;;;;;20.51;60.37;99728.88;4972872;28;20284;-73
2023/04/23 09:41:45;;;;;;;5.57;3.13;;;;;;;20.59;59.45;99724.09;4991641;28;20692;-71
2023/04/23 09:44:17;;;;;;;4.78;2.90;;;;;;;20.81;58.12;99721.47;4994907;28;20212;-73
2023/04/23 09:46:44;;;;;;;3.05;2.70;;;;;;;20.06;59.13;99719.78;4988723;28;20228;-73
2023/04/23 09:49:11;;;;;;;5.53;2.78;;;;;;;19.74;59.69;99726.28;4988861;28;20200;-72
2023/04/23 09:51:45;;;;;;;4.75;2.65;;;;;;;19.83;60.02;99720.59;4992385;28;20236;-71
2023/04/23 09:54:17;;;;;;;4.90;2.67;;;;;;;20.25;60.07;99716.38;4994731;28;20204;-74
2023/04/23 09:56:48;;;;;;;3.97;2.78;;;;;;;20.75;59.14;99718.09;4988702;28;20227;-74
2023/04/23 09:59:27;;;;;;;3.90;2.60;;;;;;;21.46;52.08;99711.66;4996052;28;20760;-74
2023/04/23 10:02:14;;;;;;;3.90;2.35;;;;;;;21.78;50.18;99710.31;4986251;28;20224;-74
2023/04/23 10:04:40;;;;;;;2.45;2.25;;;;;;;22.03;49.92;99702.03;4990462;28;20239;-73
2023/04/23 10:07:12;;;;;;;2.60;2.05;;;;;;;22.12;47.19;99694.41;4994767;28;20224;-74
2023/04/23 10:09:41;;;;;;;2.97;2.00;;;;;;;22.28;46.26;99699.13;4996460;28;20204;-74
2023/04/23 10:12:09;;;;;;;5.53;3.53;;;;;;;22.59;46.12;99695.88;4989234;28;20236;-73
2023/04/23 10:14:58;;;;;;;6.50;2.95;;;;;;;22.55;47.03;99703.25;4971134;28;20295;-75
2023/04/23 10:17:26;;;;;;;2.25;2.05;;;;;;;22.37;45.96;99696.00;5000351;28;20204;-73
2023/04/23 10:19:54;;;;;;;3.15;1.98;;;;;;;22.56;44.88;99702.31;4992871;28;20208;-73
2023/04/23 10:22:21;;;;;;;2.50;2.30;;;;;;;22.80;45.00;99711.97;4995246;28;20304;-73
2023/04/23 10:24:57;;;;;;;3.22;2.38;;;;;;;22.32;45.24;99696.19;4981492;28;20741;-73
2023/04/23 10:27:28;;;;;;;7.78;2.70;;;;;;;22.13;46.66;99701.56;4987777;28;20630;-73
2023/04/23 10:30:15;;;;;;;4.65;2.60;;;;;;;21.90;46.24;99696.28;4987180;28;20197;-73
2023/04/23 10:32:43;;;;;;;4.10;2.92;;;;;;;21.91;46.93;99698.03;4987823;28;20220;-74
2023/04/23 10:35:10;;;;;;;5.00;2.40;;;;;;;21.95;46.30;99694.25;4987686;28;20315;-75
2023/04/23 10:37:37;;;;;;;3.13;2.58;;;;;;;22.00;47.66;99686.81;4986392;28;20554;-74
2023/04/23 10:40:10;;;;;;;3.25;2.60;;;;;;;22.36;45.80;99692.41;4984692;28;20193;-71
2023/04/23 10:42:38;;;;;;;2.63;2.40;;;;;;;22.62;44.88;99682.25;4988757;28;20220;-70
2023/04/23 10:45:15;;;;;;;6.00;2.50;;;;;;;22.65;44.60;99682.09;4988351;28;20196;-73
2023/04/23 10:47:51;;;;;;;4.10;2.80;;;;;;;22.72;44.60;99672.75;4984322;28;20571;-76
2023/04/23 10:50:20;;;;;;;3.33;2.50;;;;;;;23.04;44.60;99677.50;4986043;28;20208;-74
2023/04/23 10:52:52;;;;;;;5.00;2.28;;;;;;;22.96;44.71;99676.13;4992090;28;20213;-73
2023/04/23 10:55:20;;;;;;;4.53;2.33;;;;;;;22.73;44.64;99680.78;4970177;28;20208;-74
2023/04/23 10:58:04;;;;;;;3.92;2.95;;;;;;;22.17;45.55;99669.94;4993335;28;20224;-74
2023/04/23 11:00:40;;;;;;;4.50;2.53;;;;;;;22.03;46.66;99673.28;4991214;28;20676;-74
2023/04/23 11:03:34;;;;;;;4.70;2.55;;;;;;;21.93;46.50;99671.00;4987465;28;20200;-74
2023/04/23 11:06:05;;;;;;;3.40;2.30;;;;;;;22.21;45.37;99658.06;4986012;28;20196;-74
2023/04/23 11:08:34;;;;;;;4.15;2.50;;;;;;;22.28;45.07;99653.25;4990783;28;20720;-73
2023/04/23 11:11:05;;;;;;;6.03;4.28;;;;;;;22.22;48.21;99653.53;4989787;28;20248;-74
2023/04/23 11:13:32;;;;;;;5.63;3.60;;;;;;;22.10;50.07;99644.19;4990123;28;20221;-73
2023/04/23 11:16:21;;;;;;;3.85;3.30;;;;;;;21.92;50.69;99637.75;4990208;28;20280;-75
2023/04/23 11:19:11;;;;;;;4.90;3.42;;;;;;;21.64;52.55;99629.19;4974166;28;20200;-73
2023/04/23 11:21:57;;;;;;;3.97;3.58;;;;;;;21.59;52.46;99626.66;4990149;28;20243;-74
2023/04/23 11:24:27;;;;;;;4.25;3.20;;;;;;;21.50;52.01;99629.75;4986656;28;20201;-73
2023/04/23 11:26:54;;;;;;;3.13;2.83;;;;;;;21.26;51.36;99621.81;4992988;28;20192;-73